Terminal Aerodrome Forecast
Issued by NWS

Home | Current Version | Previous Version | Text Only | Print | Product List | Glossary On
Versions: 1 2 3 4 5 6 7 8 9 10 11 12 13 14 15 16 17 18 19 20 21 22
000
FTUS42 KFFC 181700
TAFPDK
TAF
KPDK 181738Z 1818/1918 34004KT P6SM BKN080
     FM190500 00000KT P6SM SCT025
     FM191100 05005KT P6SM OVC008
     FM191600 09006KT P6SM SCT030=

USA.gov is the U.S. government's official web portal to all federal, state and local government web resources and services.